createdAt,value
2018-05-04T00:01:24.461Z,15.00
2018-05-04T00:03:53.525Z,14.90
2018-05-04T00:06:22.607Z,14.90
2018-05-04T00:08:51.642Z,14.80
2018-05-04T00:11:20.689Z,14.80
2018-05-04T00:13:49.761Z,14.70
2018-05-04T00:16:19.578Z,14.60
2018-05-04T00:18:49.381Z,14.60
2018-05-04T00:21:19.200Z,14.60
2018-05-04T00:23:49.018Z,14.60
2018-05-04T00:26:18.057Z,14.60
2018-05-04T00:28:47.301Z,14.50
2018-05-04T00:31:17.142Z,14.50
2018-05-04T00:33:46.175Z,14.50
2018-05-04T00:36:15.228Z,14.40
2018-05-04T00:38:44.302Z,14.40
2018-05-04T00:41:14.129Z,14.30
2018-05-04T00:43:43.171Z,14.30
2018-05-04T00:46:12.523Z,14.30
2018-05-04T00:48:41.561Z,14.30
2018-05-04T00:51:10.609Z,14.20
2018-05-04T00:53:58.084Z,14.20
2018-05-04T00:56:27.138Z,14.20
2018-05-04T00:58:56.181Z,14.10
2018-05-04T01:01:25.353Z,14.00
2018-05-04T01:03:54.397Z,14.10
2018-05-04T01:06:24.200Z,14.00
2018-05-04T01:08:54.040Z,14.00
2018-05-04T01:11:23.097Z,14.00
2018-05-04T01:13:52.141Z,13.90
2018-05-04T01:16:21.226Z,13.80
2018-05-04T01:18:50.262Z,13.80
2018-05-04T01:21:19.321Z,13.80
2018-05-04T01:23:49.240Z,13.70
2018-05-04T01:26:18.301Z,13.70
2018-05-04T01:28:47.600Z,13.70
2018-05-04T01:31:17.449Z,13.70
2018-05-04T01:33:46.484Z,13.60
2018-05-04T01:36:15.528Z,13.70
2018-05-04T01:38:44.608Z,13.60
2018-05-04T01:41:14.413Z,13.60
2018-05-04T01:43:44.225Z,13.60
2018-05-04T01:46:14.029Z,13.60
2018-05-04T01:48:43.845Z,13.50
2018-05-04T01:51:13.651Z,13.50
2018-05-04T01:53:43.473Z,13.50
2018-05-04T01:56:13.313Z,13.60
2018-05-04T01:58:42.349Z,13.50
2018-05-04T02:01:11.405Z,13.50
2018-05-04T02:03:40.492Z,13.40
2018-05-04T02:06:09.547Z,13.40
2018-05-04T02:08:38.586Z,13.30
2018-05-04T02:11:07.667Z,13.30
2018-05-04T02:13:36.717Z,13.30
2018-05-04T02:16:05.751Z,13.30
2018-05-04T02:18:34.827Z,13.30
2018-05-04T02:21:04.647Z,13.30
2018-05-04T02:23:34.462Z,13.20
2018-05-04T02:26:04.265Z,13.10
2018-05-04T02:28:34.092Z,13.10
2018-05-04T02:31:04.172Z,13.00
2018-05-04T02:33:33.190Z,13.00
2018-05-04T02:36:03.032Z,13.00
2018-05-04T02:38:32.085Z,12.90
2018-05-04T02:41:01.108Z,13.00
2018-05-04T02:43:30.276Z,13.00
2018-05-04T02:45:59.322Z,12.90
2018-05-04T02:48:28.367Z,12.90
2018-05-04T02:50:58.196Z,12.80
2018-05-04T02:53:28.017Z,12.80
2018-05-04T02:55:57.051Z,12.80
2018-05-04T02:58:26.185Z,12.80
2018-05-04T03:00:55.212Z,12.80
2018-05-04T03:03:24.267Z,12.70
2018-05-04T03:05:53.349Z,12.80
2018-05-04T03:08:22.400Z,12.70
2018-05-04T03:10:51.446Z,12.60
2018-05-04T03:13:20.519Z,12.60
2018-05-04T03:15:49.560Z,12.60
2018-05-04T03:18:19.363Z,12.60
2018-05-04T03:20:49.205Z,12.60
2018-05-04T03:23:18.256Z,12.60
2018-05-04T03:25:47.292Z,12.50
2018-05-04T03:28:16.557Z,12.50
2018-05-04T03:30:46.363Z,12.50
2018-05-04T03:33:15.432Z,12.50
2018-05-04T03:35:44.532Z,12.50
2018-05-04T03:38:13.577Z,12.50
2018-05-04T03:40:42.635Z,12.50
2018-05-04T03:43:11.717Z,12.50
2018-05-04T03:45:40.760Z,12.50
2018-05-04T03:48:09.809Z,12.50
2018-05-04T03:50:39.784Z,12.50
2018-05-04T03:53:08.826Z,12.50
2018-05-04T03:55:37.881Z,12.50
2018-05-04T03:58:24.641Z,12.50
2018-05-04T04:01:12.318Z,12.50
2018-05-04T04:17:18.010Z,12.50
2018-05-04T04:19:47.841Z,12.50
2018-05-04T04:22:16.917Z,12.50
2018-05-04T04:24:46.756Z,12.50
2018-05-04T04:27:15.808Z,12.50
2018-05-04T04:29:44.876Z,12.60
2018-05-04T04:32:13.983Z,12.60
2018-05-04T04:34:43.065Z,12.60
2018-05-04T04:37:12.113Z,12.70
2018-05-04T04:39:41.983Z,12.80
2018-05-04T04:42:11.108Z,12.70
2018-05-04T04:44:40.151Z,12.80
2018-05-04T04:47:09.223Z,12.80
2018-05-04T04:49:38.260Z,12.90
2018-05-04T04:52:07.657Z,12.90
2018-05-04T04:54:36.744Z,13.00
2018-05-04T04:57:05.789Z,13.00
2018-05-04T04:59:35.605Z,13.10
2018-05-04T05:02:05.546Z,13.20
2018-05-04T05:04:34.602Z,13.20
2018-05-04T05:07:03.642Z,13.20
2018-05-04T05:09:32.741Z,13.30
2018-05-04T05:12:01.785Z,13.30
2018-05-04T05:14:31.621Z,13.40
2018-05-04T05:17:00.669Z,13.40
2018-05-04T05:19:30.508Z,13.60
2018-05-04T05:22:00.408Z,13.70
2018-05-04T05:24:29.409Z,13.70
2018-05-04T05:26:59.286Z,13.90
2018-05-04T05:29:28.411Z,13.90
2018-05-04T05:31:57.396Z,14.00
2018-05-04T05:34:26.480Z,14.00
2018-05-04T05:36:55.565Z,14.10
2018-05-04T05:39:24.620Z,14.20
2018-05-04T05:41:53.716Z,14.20
2018-05-04T05:44:22.780Z,14.30
2018-05-04T05:46:51.827Z,14.30
2018-05-04T05:49:20.922Z,14.40
2018-05-04T05:51:50.073Z,14.50
2018-05-04T05:54:19.824Z,14.70
2018-05-04T05:56:49.720Z,14.60
2018-05-04T05:59:18.821Z,14.70
2018-05-04T06:01:47.862Z,14.80
2018-05-04T06:04:16.946Z,14.80
2018-05-04T06:06:46.025Z,14.80
2018-05-04T06:09:15.138Z,14.90
2018-05-04T06:11:44.940Z,15.10
2018-05-04T06:14:13.978Z,15.00
2018-05-04T06:16:43.821Z,15.20
2018-05-04T06:19:12.874Z,15.20
2018-05-04T06:21:41.969Z,15.30
2018-05-04T06:24:11.008Z,15.30
2018-05-04T06:26:40.093Z,15.40
2018-05-04T06:29:09.140Z,15.50
2018-05-04T06:31:38.239Z,15.60
2018-05-04T06:34:07.316Z,15.70
2018-05-04T06:36:36.379Z,15.80
2018-05-04T06:39:06.339Z,15.90
2018-05-04T06:41:35.424Z,16.00
2018-05-04T06:44:04.493Z,16.10
2018-05-04T06:46:33.565Z,16.20
2018-05-04T06:49:03.395Z,16.40
2018-05-04T06:51:32.469Z,16.30
2018-05-04T06:54:02.289Z,16.50
2018-05-04T06:56:31.364Z,16.50
2018-05-04T06:59:01.192Z,16.70
2018-05-04T07:01:30.269Z,16.70
2018-05-04T07:04:00.125Z,16.90
2018-05-04T07:06:29.192Z,16.90
2018-05-04T07:08:58.344Z,17.00
2018-05-04T07:11:27.321Z,17.10
2018-05-04T07:13:56.394Z,17.20
2018-05-04T07:16:25.442Z,17.30
2018-05-04T07:18:54.524Z,17.30
2018-05-04T07:21:23.569Z,17.40
2018-05-04T07:23:52.653Z,17.50
2018-05-04T07:26:22.470Z,17.70
2018-05-04T07:28:51.547Z,17.70
2018-05-04T07:31:21.374Z,17.90
2018-05-04T07:33:50.449Z,17.90
2018-05-04T07:36:20.349Z,18.10
2018-05-04T07:38:49.386Z,18.10
2018-05-04T07:41:18.461Z,18.20
2018-05-04T07:43:48.278Z,18.40
2018-05-04T07:46:18.125Z,18.50
2018-05-04T07:48:47.186Z,18.50
2018-05-04T07:51:17.027Z,18.70
2018-05-04T07:53:46.090Z,18.70
2018-05-04T07:56:16.712Z,18.90
2018-05-04T07:58:46.537Z,19.00
2018-05-04T08:01:16.374Z,19.10
2018-05-04T08:03:45.434Z,19.10
2018-05-04T08:06:15.242Z,19.30
2018-05-04T08:08:45.071Z,19.40
2018-05-04T08:11:14.918Z,19.50
2018-05-04T08:13:43.968Z,19.40
2018-05-04T08:16:13.826Z,19.60
2018-05-04T08:18:42.884Z,19.60
2018-05-04T08:21:12.719Z,19.90
2018-05-04T08:23:41.758Z,19.80
2018-05-04T08:26:10.827Z,20.00
2018-05-04T08:28:39.902Z,20.10
2018-05-04T08:31:08.940Z,20.20
2018-05-04T08:33:38.048Z,20.30
2018-05-04T08:36:07.082Z,20.40
2018-05-04T08:38:36.157Z,20.60
2018-05-04T08:41:06.103Z,20.80
2018-05-04T08:43:35.155Z,20.70
2018-05-04T08:46:04.976Z,21.00
2018-05-04T08:48:34.818Z,21.10
2018-05-04T08:51:03.920Z,21.10
2018-05-04T08:53:33.732Z,21.30
2018-05-04T08:56:02.812Z,21.30
2018-05-04T08:58:31.856Z,21.40
2018-05-04T09:01:00.961Z,21.50
2018-05-04T09:03:30.005Z,21.50
2018-05-04T09:05:59.797Z,21.70
2018-05-04T09:08:28.876Z,21.80
2018-05-04T09:10:58.708Z,22.00
2018-05-04T09:13:27.860Z,22.00
2018-05-04T09:15:57.640Z,22.10
2018-05-04T09:18:26.721Z,22.10
2018-05-04T09:20:55.793Z,22.20
2018-05-04T09:23:25.601Z,22.30
2018-05-04T09:25:55.455Z,22.40
2018-05-04T09:28:24.531Z,22.40
2018-05-04T09:30:53.616Z,22.60
2018-05-04T09:33:23.468Z,22.70
2018-05-04T09:35:52.506Z,22.70
2018-05-04T09:38:22.365Z,22.90
2018-05-04T09:40:51.406Z,22.90
2018-05-04T09:43:20.546Z,23.00
2018-05-04T09:45:49.540Z,23.00
2018-05-04T09:48:18.591Z,23.10
2018-05-04T09:50:47.660Z,23.20
2018-05-04T09:53:16.725Z,23.40
2018-05-04T09:55:45.769Z,23.50
2018-05-04T09:58:14.840Z,23.70
2018-05-04T10:00:43.942Z,23.90
2018-05-04T10:03:12.989Z,24.00
2018-05-04T10:05:42.066Z,24.20
2018-05-04T10:08:11.911Z,24.60
2018-05-04T10:10:40.965Z,24.50
2018-05-04T10:13:10.800Z,25.00
2018-05-04T10:15:39.853Z,25.00
2018-05-04T10:18:08.937Z,25.20
2018-05-04T10:20:38.011Z,25.50
2018-05-04T10:23:07.076Z,25.60
2018-05-04T10:25:36.146Z,25.70
2018-05-04T10:28:05.203Z,25.80
2018-05-04T10:30:34.287Z,25.90
2018-05-04T10:33:03.357Z,26.10
2018-05-04T10:35:32.407Z,26.50
2018-05-04T10:38:01.440Z,26.70
2018-05-04T10:40:30.505Z,27.00
2018-05-04T10:42:59.632Z,27.60
2018-05-04T10:45:28.665Z,27.70
2018-05-04T10:47:57.722Z,27.80
2018-05-04T10:50:26.800Z,27.80
2018-05-04T10:52:56.619Z,27.90
2018-05-04T10:55:26.472Z,28.00
2018-05-04T10:57:55.505Z,27.90
2018-05-04T11:00:24.553Z,28.10
2018-05-04T11:02:53.636Z,28.60
2018-05-04T11:05:22.772Z,29.00
2018-05-04T11:07:52.836Z,29.30
2018-05-04T11:10:21.874Z,29.70
2018-05-04T11:12:50.948Z,30.10
2018-05-04T11:15:20.025Z,30.30
2018-05-04T11:17:49.122Z,30.40
2018-05-04T11:20:18.184Z,30.50
2018-05-04T11:22:47.264Z,30.80
2018-05-04T11:25:16.337Z,31.10
2018-05-04T11:27:45.378Z,31.50
2018-05-04T11:30:15.237Z,32.10
2018-05-04T11:32:44.268Z,32.00
2018-05-04T11:35:13.336Z,32.30
2018-05-04T11:37:42.397Z,32.60
2018-05-04T11:40:11.571Z,32.70
2018-05-04T11:42:41.393Z,33.20
2018-05-04T11:45:10.461Z,33.20
2018-05-04T11:47:39.513Z,33.10
2018-05-04T11:50:08.585Z,33.20
2018-05-04T11:52:37.654Z,33.50
2018-05-04T11:55:07.501Z,33.80
2018-05-04T11:57:36.533Z,33.80
2018-05-04T12:00:05.645Z,33.90
2018-05-04T12:02:34.703Z,34.30
2018-05-04T12:05:03.809Z,34.90
2018-05-04T12:07:32.858Z,35.10
2018-05-04T12:10:02.675Z,35.10
2018-05-04T12:12:31.753Z,35.10
2018-05-04T12:15:01.597Z,35.60
2018-05-04T12:17:30.637Z,35.60
2018-05-04T12:19:59.674Z,35.90
2018-05-04T12:22:28.741Z,36.10
2018-05-04T12:24:58.589Z,36.50
2018-05-04T12:27:27.630Z,36.50
2018-05-04T12:29:56.965Z,36.70
2018-05-04T12:32:26.793Z,37.10
2018-05-04T12:34:55.830Z,37.10
2018-05-04T12:37:24.909Z,37.40
2018-05-04T12:39:53.974Z,37.50
2018-05-04T12:42:23.053Z,37.60
2018-05-04T12:44:52.857Z,38.20
2018-05-04T12:47:22.691Z,38.40
2018-05-04T12:49:51.748Z,38.40
2018-05-04T12:52:20.794Z,38.30
2018-05-04T12:54:49.862Z,38.30
2018-05-04T12:57:19.673Z,38.10
2018-05-04T12:59:49.520Z,38.10
2018-05-04T13:02:18.553Z,38.10
2018-05-04T13:04:47.620Z,38.20
2018-05-04T13:07:16.660Z,37.90
2018-05-04T13:09:46.547Z,37.90
2018-05-04T13:12:15.579Z,37.90
2018-05-04T13:14:45.422Z,37.60
2018-05-04T13:17:14.463Z,37.60
2018-05-04T13:19:43.537Z,37.40
2018-05-04T13:22:12.598Z,36.90
2018-05-04T13:24:41.668Z,36.60
2018-05-04T13:27:11.473Z,35.70
2018-05-04T13:29:41.322Z,35.50
2018-05-04T13:32:10.410Z,35.50
2018-05-04T13:34:39.473Z,35.40
2018-05-04T13:37:08.527Z,35.30
2018-05-04T13:39:37.721Z,35.30
2018-05-04T13:42:06.782Z,35.20
2018-05-04T13:44:35.850Z,35.20
2018-05-04T13:47:04.921Z,35.30
2018-05-04T13:49:33.961Z,35.40
2018-05-04T13:52:03.040Z,35.20
2018-05-04T13:54:32.889Z,34.30
2018-05-04T13:57:01.932Z,34.30
2018-05-04T13:59:31.012Z,33.80
2018-05-04T14:02:00.074Z,33.70
2018-05-04T14:04:29.116Z,33.50
2018-05-04T14:06:58.180Z,33.40
2018-05-04T14:09:27.258Z,33.00
2018-05-04T14:11:56.326Z,32.90
2018-05-04T14:14:25.453Z,32.80
2018-05-04T14:16:54.474Z,32.90
2018-05-04T14:19:24.194Z,32.60
2018-05-04T14:21:53.243Z,32.50
2018-05-04T14:24:22.390Z,32.20
2018-05-04T14:26:51.433Z,32.10
2018-05-04T14:29:20.498Z,32.10
2018-05-04T14:31:50.312Z,32.20
2018-05-04T14:34:20.317Z,32.20
2018-05-04T14:36:49.373Z,32.30
2018-05-04T14:39:18.434Z,32.10
2018-05-04T14:41:47.483Z,31.90
2018-05-04T14:44:16.541Z,31.80
2018-05-04T14:46:45.585Z,31.70
2018-05-04T14:49:15.424Z,31.20
2018-05-04T14:51:45.425Z,31.10
2018-05-04T14:54:15.231Z,30.50
2018-05-04T14:56:45.061Z,30.10
2018-05-04T14:59:14.125Z,30.00
2018-05-04T15:01:43.191Z,29.60
2018-05-04T15:04:12.237Z,29.20
2018-05-04T15:06:42.082Z,29.10
2018-05-04T15:09:11.129Z,29.10
2018-05-04T15:11:40.988Z,28.80
2018-05-04T15:14:10.042Z,28.70
2018-05-04T15:16:39.895Z,28.30
2018-05-04T15:19:09.009Z,28.30
2018-05-04T15:21:38.081Z,28.10
2018-05-04T15:24:07.158Z,28.00
2018-05-04T15:26:36.209Z,27.90
2018-05-04T15:29:05.289Z,27.90
2018-05-04T15:31:34.399Z,27.80
2018-05-04T15:34:03.443Z,27.70
2018-05-04T15:36:32.522Z,27.60
2018-05-04T15:39:02.369Z,27.60
2018-05-04T15:41:31.418Z,27.60
2018-05-04T15:44:01.261Z,27.30
2018-05-04T15:46:30.324Z,27.30
2018-05-04T15:49:05.723Z,27.10
2018-05-04T15:51:40.331Z,27.10
2018-05-04T15:54:09.392Z,27.00
2018-05-04T15:56:39.204Z,26.60
2018-05-04T15:59:09.701Z,26.60
2018-05-04T16:01:38.775Z,26.50
2018-05-04T16:04:07.821Z,26.40
2018-05-04T16:06:37.665Z,26.60
2018-05-04T16:09:06.744Z,26.50
2018-05-04T16:11:35.781Z,26.80
2018-05-04T16:14:04.830Z,26.80
2018-05-04T16:16:33.889Z,26.80
2018-05-04T16:19:02.978Z,26.80
2018-05-04T16:21:32.057Z,26.70
2018-05-04T16:24:01.114Z,26.70
2018-05-04T16:26:30.220Z,26.70
2018-05-04T16:28:59.323Z,26.80
2018-05-04T16:31:28.334Z,26.70
2018-05-04T16:33:57.405Z,26.80
2018-05-04T16:36:26.451Z,27.00
2018-05-04T16:38:55.533Z,27.50
2018-05-04T16:41:24.594Z,27.80
2018-05-04T16:43:53.679Z,28.10
2018-05-04T16:46:28.324Z,28.30
2018-05-04T16:49:03.000Z,28.20
2018-05-04T16:51:32.837Z,27.60
2018-05-04T16:54:01.914Z,27.60
2018-05-04T16:56:31.732Z,26.90
2018-05-04T16:59:00.805Z,26.90
2018-05-04T17:01:29.859Z,26.60
2018-05-04T17:03:58.941Z,26.40
2018-05-04T17:06:28.041Z,26.10
2018-05-04T17:08:57.874Z,25.60
2018-05-04T17:11:26.963Z,25.60
2018-05-04T17:13:56.002Z,25.40
2018-05-04T17:16:25.852Z,25.10
2018-05-04T17:18:54.937Z,25.10
2018-05-04T17:21:23.989Z,24.90
2018-05-04T17:23:53.074Z,24.80
2018-05-04T17:26:22.118Z,24.70
2018-05-04T17:28:51.203Z,24.50
2018-05-04T17:31:21.026Z,24.20
2018-05-04T17:33:50.115Z,24.10
2018-05-04T17:36:19.164Z,24.00
2018-05-04T17:38:48.238Z,23.90
2018-05-04T17:41:17.329Z,23.80
2018-05-04T17:43:46.388Z,23.70
2018-05-04T17:46:16.303Z,23.40
2018-05-04T17:48:46.114Z,23.20
2018-05-04T17:51:15.218Z,23.20
2018-05-04T17:53:44.267Z,23.10
2018-05-04T17:56:13.357Z,23.00
2018-05-04T17:58:42.525Z,22.90
2018-05-04T18:01:11.709Z,22.70
2018-05-04T18:03:40.776Z,22.60
2018-05-04T18:06:10.587Z,22.40
2018-05-04T18:08:40.424Z,22.30
2018-05-04T18:11:09.511Z,22.20
2018-05-04T18:13:38.610Z,22.10
2018-05-04T18:16:07.673Z,22.00
2018-05-04T18:18:36.756Z,22.00
2018-05-04T18:21:06.517Z,21.90
2018-05-04T18:23:35.732Z,21.80
2018-05-04T18:26:05.442Z,21.70
2018-05-04T18:28:34.618Z,21.70
2018-05-04T18:31:03.667Z,21.60
2018-05-04T18:33:32.752Z,21.50
2018-05-04T18:36:01.844Z,21.40
2018-05-04T18:38:30.886Z,21.40
2018-05-04T18:40:59.973Z,21.30
2018-05-04T18:43:30.317Z,21.20
2018-05-04T18:45:59.373Z,21.20
2018-05-04T18:48:34.439Z,21.00
2018-05-04T18:51:03.819Z,21.00
2018-05-04T18:53:33.680Z,20.90
2018-05-04T18:56:02.728Z,20.90
2018-05-04T18:58:32.546Z,20.70
2018-05-04T19:01:02.652Z,20.60
2018-05-04T19:03:31.685Z,20.60
2018-05-04T19:06:00.737Z,20.70
2018-05-04T19:08:29.921Z,20.60
2018-05-04T19:10:59.014Z,20.50
2018-05-04T19:13:28.061Z,20.50
2018-05-04T19:15:57.254Z,20.40
2018-05-04T19:18:26.313Z,20.40
2018-05-04T19:20:55.366Z,20.30
2018-05-04T19:23:24.461Z,20.30
2018-05-04T19:25:53.523Z,20.20
2018-05-04T19:28:24.631Z,20.20
2018-05-04T19:30:53.720Z,20.20
2018-05-04T19:33:22.778Z,20.10
2018-05-04T19:35:51.831Z,20.10
2018-05-04T19:38:21.680Z,20.00
2018-05-04T19:40:50.739Z,20.00
2018-05-04T19:43:21.367Z,19.90
2018-05-04T19:45:51.229Z,19.80
2018-05-04T19:48:20.281Z,19.80
2018-05-04T19:50:50.106Z,19.80
2018-05-04T19:53:19.209Z,19.70
2018-05-04T19:55:48.291Z,19.70
2018-05-04T19:58:18.118Z,19.70
2018-05-04T20:00:47.188Z,19.60
2018-05-04T20:03:17.231Z,19.60
2018-05-04T20:05:46.290Z,19.50
2018-05-04T20:08:15.379Z,19.50
2018-05-04T20:10:45.276Z,19.50
2018-05-04T20:13:15.085Z,19.40
2018-05-04T20:15:44.169Z,19.40
2018-05-04T20:18:13.214Z,19.30
2018-05-04T20:20:43.042Z,19.30
2018-05-04T20:23:12.773Z,19.30
2018-05-04T20:25:41.821Z,19.30
2018-05-04T20:28:10.916Z,19.20
2018-05-04T20:30:39.954Z,19.20
2018-05-04T20:33:08.993Z,19.10
2018-05-04T20:35:38.096Z,19.10
2018-05-04T20:38:07.128Z,19.10
2018-05-04T20:40:36.261Z,19.00
2018-05-04T20:43:05.355Z,19.00
2018-05-04T20:45:34.480Z,18.90
2018-05-04T20:48:04.447Z,18.80
2018-05-04T20:50:33.526Z,18.80
2018-05-04T20:53:02.575Z,18.80
2018-05-04T20:55:31.621Z,18.70
2018-05-04T20:58:00.744Z,18.70
2018-05-04T21:00:29.805Z,18.70
2018-05-04T21:02:58.857Z,18.70
2018-05-04T21:05:27.982Z,18.60
2018-05-04T21:07:57.781Z,18.60
2018-05-04T21:10:27.600Z,18.50
2018-05-04T21:12:57.396Z,18.50
2018-05-04T21:15:27.215Z,18.40
2018-05-04T21:17:57.044Z,18.40
2018-05-04T21:20:26.861Z,18.40
2018-05-04T21:22:56.259Z,18.40
2018-05-04T21:25:25.554Z,18.40
2018-05-04T21:27:55.514Z,18.30
2018-05-04T21:30:25.261Z,18.30
2018-05-04T21:32:55.435Z,18.10
2018-05-04T21:35:24.733Z,18.10
2018-05-04T21:37:53.813Z,18.10
2018-05-04T21:40:22.892Z,18.00
2018-05-04T21:42:51.948Z,18.00
2018-05-04T21:45:20.988Z,17.90
2018-05-04T21:47:50.074Z,17.90
2018-05-04T21:50:19.885Z,17.80
2018-05-04T21:52:48.972Z,17.70
2018-05-04T21:55:18.777Z,17.70
2018-05-04T21:57:48.624Z,17.70
2018-05-04T22:00:17.709Z,17.60
2018-05-04T22:02:46.826Z,17.60
2018-05-04T22:05:15.912Z,17.50
2018-05-04T22:07:44.970Z,17.50
2018-05-04T22:10:14.773Z,17.50
2018-05-04T22:12:43.863Z,17.40
2018-05-04T22:15:12.964Z,17.40
2018-05-04T22:17:42.006Z,17.30
2018-05-04T22:20:11.063Z,17.30
2018-05-04T22:22:40.912Z,17.20
2018-05-04T22:25:10.013Z,17.20
2018-05-04T22:27:39.076Z,17.10
2018-05-04T22:30:09.045Z,17.00
2018-05-04T22:32:38.112Z,17.00
2018-05-04T22:35:07.710Z,17.00
2018-05-04T22:37:36.758Z,16.90
2018-05-04T22:40:06.262Z,16.80
2018-05-04T22:42:35.334Z,16.80
2018-05-04T22:45:04.379Z,16.70
2018-05-04T22:47:34.223Z,16.70
2018-05-04T22:50:03.302Z,16.70
2018-05-04T22:52:32.377Z,16.70
2018-05-04T22:55:02.213Z,16.70
2018-05-04T22:57:31.266Z,16.60
2018-05-04T23:00:00.361Z,16.60
2018-05-04T23:02:29.399Z,16.60
2018-05-04T23:04:58.461Z,16.50
2018-05-04T23:07:28.308Z,16.50
2018-05-04T23:09:57.384Z,16.40
2018-05-04T23:12:26.465Z,16.50
2018-05-04T23:14:56.304Z,16.40
2018-05-04T23:17:25.374Z,16.40
2018-05-04T23:19:54.473Z,16.40
2018-05-04T23:22:30.097Z,16.30
2018-05-04T23:24:59.981Z,16.40
2018-05-04T23:27:29.025Z,16.30
2018-05-04T23:29:58.865Z,16.30
2018-05-04T23:32:27.910Z,16.30
2018-05-04T23:34:56.986Z,16.30
2018-05-04T23:37:27.191Z,16.20
2018-05-04T23:39:56.295Z,16.20
2018-05-04T23:42:25.374Z,16.20
2018-05-04T23:44:54.413Z,16.20
2018-05-04T23:47:23.490Z,16.20
2018-05-04T23:49:52.570Z,16.20
2018-05-04T23:52:21.646Z,16.10
2018-05-04T23:54:51.561Z,16.10
2018-05-04T23:57:20.609Z,16.00
2018-05-04T23:59:49.913Z,16.00
